sensor_id;sensor_type;location;lat;lon;timestamp;P1;durP1;ratioP1;P2;durP2;ratioP2
46116;SDS011;32591;48.102;11.772;2022-09-29T00:02:11;1.08;;;0.60;;
46116;SDS011;32591;48.102;11.772;2022-09-29T00:04:38;0.68;;;0.60;;
46116;SDS011;32591;48.102;11.772;2022-09-29T00:07:06;0.93;;;0.68;;
46116;SDS011;32591;48.102;11.772;2022-09-29T00:09:33;0.60;;;0.60;;
46116;SDS011;32591;48.102;11.772;2022-09-29T00:12:00;0.88;;;0.57;;
46116;SDS011;32591;48.102;11.772;2022-09-29T00:14:27;0.40;;;0.40;;
46116;SDS011;32591;48.102;11.772;2022-09-29T00:16:54;1.08;;;0.65;;
46116;SDS011;32591;48.102;11.772;2022-09-29T00:19:21;2.95;;;0.80;;
46116;SDS011;32591;48.102;11.772;2022-09-29T00:21:49;0.73;;;0.63;;
46116;SDS011;32591;48.102;11.772;2022-09-29T00:24:18;0.60;;;0.43;;
46116;SDS011;32591;48.102;11.772;2022-09-29T00:26:45;2.13;;;0.80;;
46116;SDS011;32591;48.102;11.772;2022-09-29T00:29:12;0.70;;;0.40;;
46116;SDS011;32591;48.102;11.772;2022-09-29T00:31:39;0.95;;;0.70;;
46116;SDS011;32591;48.102;11.772;2022-09-29T00:34:06;1.20;;;0.70;;
46116;SDS011;32591;48.102;11.772;2022-09-29T00:36:33;1.40;;;0.85;;
46116;SDS011;32591;48.102;11.772;2022-09-29T00:39:00;0.95;;;0.77;;
46116;SDS011;32591;48.102;11.772;2022-09-29T00:41:30;1.50;;;0.88;;
46116;SDS011;32591;48.102;11.772;2022-09-29T00:44:00;0.98;;;0.73;;
46116;SDS011;32591;48.102;11.772;2022-09-29T00:46:32;2.08;;;1.00;;
46116;SDS011;32591;48.102;11.772;2022-09-29T00:49:08;2.67;;;1.48;;
46116;SDS011;32591;48.102;11.772;2022-09-29T00:51:42;2.70;;;1.50;;
46116;SDS011;32591;48.102;11.772;2022-09-29T00:54:13;3.63;;;1.40;;
46116;SDS011;32591;48.102;11.772;2022-09-29T00:56:43;1.75;;;1.33;;
46116;SDS011;32591;48.102;11.772;2022-09-29T00:59:12;0.80;;;0.80;;
46116;SDS011;32591;48.102;11.772;2022-09-29T01:01:44;2.60;;;1.17;;
46116;SDS011;32591;48.102;11.772;2022-09-29T01:04:13;2.40;;;1.17;;
46116;SDS011;32591;48.102;11.772;2022-09-29T01:06:44;1.60;;;1.20;;
46116;SDS011;32591;48.102;11.772;2022-09-29T01:09:15;3.05;;;1.50;;
46116;SDS011;32591;48.102;11.772;2022-09-29T01:11:47;2.00;;;1.27;;
46116;SDS011;32591;48.102;11.772;2022-09-29T01:14:16;1.58;;;1.20;;
46116;SDS011;32591;48.102;11.772;2022-09-29T01:16:44;3.00;;;1.70;;
46116;SDS011;32591;48.102;11.772;2022-09-29T01:19:13;1.85;;;1.20;;
46116;SDS011;32591;48.102;11.772;2022-09-29T01:21:49;2.08;;;1.52;;
46116;SDS011;32591;48.102;11.772;2022-09-29T01:24:36;2.17;;;1.63;;
46116;SDS011;32591;48.102;11.772;2022-09-29T01:33:17;1.42;;;1.10;;
46116;SDS011;32591;48.102;11.772;2022-09-29T01:35:55;1.70;;;1.30;;
46116;SDS011;32591;48.102;11.772;2022-09-29T01:38:34;1.65;;;1.23;;
46116;SDS011;32591;48.102;11.772;2022-09-29T01:41:15;2.35;;;1.30;;
46116;SDS011;32591;48.102;11.772;2022-09-29T01:43:54;1.73;;;1.20;;
46116;SDS011;32591;48.102;11.772;2022-09-29T01:46:29;1.15;;;1.05;;
46116;SDS011;32591;48.102;11.772;2022-09-29T01:48:59;2.00;;;1.10;;
46116;SDS011;32591;48.102;11.772;2022-09-29T01:51:31;1.48;;;1.23;;
46116;SDS011;32591;48.102;11.772;2022-09-29T01:54:05;1.40;;;1.17;;
46116;SDS011;32591;48.102;11.772;2022-09-29T01:56:40;1.63;;;1.08;;
46116;SDS011;32591;48.102;11.772;2022-09-29T01:59:14;1.58;;;1.38;;
46116;SDS011;32591;48.102;11.772;2022-09-29T02:01:47;1.52;;;1.00;;
46116;SDS011;32591;48.102;11.772;2022-09-29T02:04:17;1.85;;;1.30;;
46116;SDS011;32591;48.102;11.772;2022-09-29T02:06:51;0.82;;;0.82;;
46116;SDS011;32591;48.102;11.772;2022-09-29T02:09:26;1.80;;;1.23;;
46116;SDS011;32591;48.102;11.772;2022-09-29T02:11:55;1.88;;;1.08;;
46116;SDS011;32591;48.102;11.772;2022-09-29T02:14:24;3.63;;;1.48;;
46116;SDS011;32591;48.102;11.772;2022-09-29T02:16:58;2.85;;;1.40;;
46116;SDS011;32591;48.102;11.772;2022-09-29T02:19:32;2.05;;;0.90;;
46116;SDS011;32591;48.102;11.772;2022-09-29T02:22:02;1.85;;;1.20;;
46116;SDS011;32591;48.102;11.772;2022-09-29T02:24:29;1.65;;;1.25;;
46116;SDS011;32591;48.102;11.772;2022-09-29T02:26:57;2.78;;;1.67;;
46116;SDS011;32591;48.102;11.772;2022-09-29T02:29:24;2.10;;;1.17;;
46116;SDS011;32591;48.102;11.772;2022-09-29T02:31:52;1.75;;;1.10;;
46116;SDS011;32591;48.102;11.772;2022-09-29T02:34:26;1.98;;;1.40;;
46116;SDS011;32591;48.102;11.772;2022-09-29T02:36:56;3.67;;;1.67;;
46116;SDS011;32591;48.102;11.772;2022-09-29T02:39:31;4.53;;;2.03;;
46116;SDS011;32591;48.102;11.772;2022-09-29T02:42:11;2.25;;;1.70;;
46116;SDS011;32591;48.102;11.772;2022-09-29T02:45:02;2.08;;;1.10;;
46116;SDS011;32591;48.102;11.772;2022-09-29T02:47:49;1.88;;;1.30;;
46116;SDS011;32591;48.102;11.772;2022-09-29T02:50:32;1.63;;;1.20;;
46116;SDS011;32591;48.102;11.772;2022-09-29T02:53:16;1.52;;;0.95;;
46116;SDS011;32591;48.102;11.772;2022-09-29T02:55:56;1.75;;;1.15;;
46116;SDS011;32591;48.102;11.772;2022-09-29T02:58:34;1.40;;;0.90;;
46116;SDS011;32591;48.102;11.772;2022-09-29T03:01:05;1.35;;;0.95;;
46116;SDS011;32591;48.102;11.772;2022-09-29T03:03:34;1.58;;;1.10;;
46116;SDS011;32591;48.102;11.772;2022-09-29T03:06:01;1.75;;;1.20;;
46116;SDS011;32591;48.102;11.772;2022-09-29T03:08:28;1.70;;;0.90;;
46116;SDS011;32591;48.102;11.772;2022-09-29T03:10:56;1.42;;;0.88;;
46116;SDS011;32591;48.102;11.772;2022-09-29T03:13:23;1.23;;;1.00;;
46116;SDS011;32591;48.102;11.772;2022-09-29T03:15:51;1.52;;;1.00;;
46116;SDS011;32591;48.102;11.772;2022-09-29T03:18:18;1.70;;;0.95;;
46116;SDS011;32591;48.102;11.772;2022-09-29T03:20:49;1.77;;;0.93;;
46116;SDS011;32591;48.102;11.772;2022-09-29T03:23:16;1.90;;;1.10;;
46116;SDS011;32591;48.102;11.772;2022-09-29T03:25:43;1.08;;;0.93;;
46116;SDS011;32591;48.102;11.772;2022-09-29T03:28:10;1.52;;;0.88;;
46116;SDS011;32591;48.102;11.772;2022-09-29T03:30:37;3.63;;;1.17;;
46116;SDS011;32591;48.102;11.772;2022-09-29T03:33:04;1.48;;;1.10;;
46116;SDS011;32591;48.102;11.772;2022-09-29T03:35:31;1.77;;;1.20;;
46116;SDS011;32591;48.102;11.772;2022-09-29T03:38:00;0.80;;;0.80;;
46116;SDS011;32591;48.102;11.772;2022-09-29T03:40:27;2.15;;;1.10;;
46116;SDS011;32591;48.102;11.772;2022-09-29T03:42:54;2.78;;;1.40;;
46116;SDS011;32591;48.102;11.772;2022-09-29T03:45:21;1.75;;;1.10;;
46116;SDS011;32591;48.102;11.772;2022-09-29T03:47:48;2.35;;;1.50;;
46116;SDS011;32591;48.102;11.772;2022-09-29T03:50:15;1.05;;;0.90;;
46116;SDS011;32591;48.102;11.772;2022-09-29T03:52:42;1.65;;;0.90;;
46116;SDS011;32591;48.102;11.772;2022-09-29T03:55:11;1.45;;;0.80;;
46116;SDS011;32591;48.102;11.772;2022-09-29T03:57:38;2.28;;;1.20;;
46116;SDS011;32591;48.102;11.772;2022-09-29T04:00:05;1.20;;;1.00;;
46116;SDS011;32591;48.102;11.772;2022-09-29T04:02:34;2.65;;;1.13;;
46116;SDS011;32591;48.102;11.772;2022-09-29T04:05:01;4.00;;;1.08;;
46116;SDS011;32591;48.102;11.772;2022-09-29T04:07:28;3.58;;;1.08;;
46116;SDS011;32591;48.102;11.772;2022-09-29T04:09:56;1.83;;;1.15;;
46116;SDS011;32591;48.102;11.772;2022-09-29T04:12:24;4.32;;;1.35;;
46116;SDS011;32591;48.102;11.772;2022-09-29T04:14:52;1.30;;;1.00;;
46116;SDS011;32591;48.102;11.772;2022-09-29T04:17:19;1.58;;;1.40;;
46116;SDS011;32591;48.102;11.772;2022-09-29T04:19:46;1.60;;;1.35;;
46116;SDS011;32591;48.102;11.772;2022-09-29T04:22:13;2.42;;;1.50;;
46116;SDS011;32591;48.102;11.772;2022-09-29T04:24:42;1.80;;;1.20;;
46116;SDS011;32591;48.102;11.772;2022-09-29T04:27:10;3.22;;;1.55;;
46116;SDS011;32591;48.102;11.772;2022-09-29T04:29:38;2.15;;;1.40;;
46116;SDS011;32591;48.102;11.772;2022-09-29T04:32:05;2.53;;;1.60;;
46116;SDS011;32591;48.102;11.772;2022-09-29T04:34:33;2.30;;;1.45;;
46116;SDS011;32591;48.102;11.772;2022-09-29T04:37:00;1.67;;;1.35;;
46116;SDS011;32591;48.102;11.772;2022-09-29T04:39:28;2.17;;;1.33;;
46116;SDS011;32591;48.102;11.772;2022-09-29T04:41:55;4.93;;;1.58;;
46116;SDS011;32591;48.102;11.772;2022-09-29T04:44:22;3.03;;;1.67;;
46116;SDS011;32591;48.102;11.772;2022-09-29T04:46:51;3.03;;;1.60;;
46116;SDS011;32591;48.102;11.772;2022-09-29T04:49:18;3.83;;;1.70;;
46116;SDS011;32591;48.102;11.772;2022-09-29T04:51:46;3.22;;;1.55;;
46116;SDS011;32591;48.102;11.772;2022-09-29T04:54:13;3.83;;;1.92;;
46116;SDS011;32591;48.102;11.772;2022-09-29T04:56:41;3.15;;;2.03;;
46116;SDS011;32591;48.102;11.772;2022-09-29T04:59:08;1.95;;;1.40;;
46116;SDS011;32591;48.102;11.772;2022-09-29T05:01:37;3.55;;;1.88;;
46116;SDS011;32591;48.102;11.772;2022-09-29T05:04:05;3.67;;;2.03;;
46116;SDS011;32591;48.102;11.772;2022-09-29T05:06:33;3.35;;;1.60;;
46116;SDS011;32591;48.102;11.772;2022-09-29T05:09:03;2.30;;;1.55;;
46116;SDS011;32591;48.102;11.772;2022-09-29T05:11:31;2.35;;;1.60;;
46116;SDS011;32591;48.102;11.772;2022-09-29T05:13:58;3.30;;;1.60;;
46116;SDS011;32591;48.102;11.772;2022-09-29T05:16:25;4.22;;;2.28;;
46116;SDS011;32591;48.102;11.772;2022-09-29T05:18:52;4.07;;;2.20;;
46116;SDS011;32591;48.102;11.772;2022-09-29T05:21:21;5.75;;;2.20;;
46116;SDS011;32591;48.102;11.772;2022-09-29T05:23:49;4.80;;;2.70;;
46116;SDS011;32591;48.102;11.772;2022-09-29T05:26:16;5.70;;;2.25;;
46116;SDS011;32591;48.102;11.772;2022-09-29T05:28:43;2.72;;;1.88;;
46116;SDS011;32591;48.102;11.772;2022-09-29T05:31:13;2.72;;;2.00;;
46116;SDS011;32591;48.102;11.772;2022-09-29T05:33:41;4.10;;;1.98;;
46116;SDS011;32591;48.102;11.772;2022-09-29T05:36:10;2.40;;;1.70;;
46116;SDS011;32591;48.102;11.772;2022-09-29T05:38:39;3.47;;;1.90;;
46116;SDS011;32591;48.102;11.772;2022-09-29T05:41:07;1.92;;;1.42;;
46116;SDS011;32591;48.102;11.772;2022-09-29T05:43:36;5.00;;;2.60;;
46116;SDS011;32591;48.102;11.772;2022-09-29T05:46:05;2.40;;;1.65;;
46116;SDS011;32591;48.102;11.772;2022-09-29T05:48:35;3.25;;;2.20;;
46116;SDS011;32591;48.102;11.772;2022-09-29T05:51:06;3.78;;;2.20;;
46116;SDS011;32591;48.102;11.772;2022-09-29T05:53:35;2.65;;;1.90;;
46116;SDS011;32591;48.102;11.772;2022-09-29T05:56:05;3.15;;;1.70;;
46116;SDS011;32591;48.102;11.772;2022-09-29T05:58:33;3.58;;;1.63;;
46116;SDS011;32591;48.102;11.772;2022-09-29T06:01:03;4.28;;;1.95;;
46116;SDS011;32591;48.102;11.772;2022-09-29T06:03:32;3.38;;;1.70;;
46116;SDS011;32591;48.102;11.772;2022-09-29T06:06:03;4.78;;;2.75;;
46116;SDS011;32591;48.102;11.772;2022-09-29T06:08:32;4.93;;;2.22;;
46116;SDS011;32591;48.102;11.772;2022-09-29T06:11:05;3.58;;;2.33;;
46116;SDS011;32591;48.102;11.772;2022-09-29T06:13:35;5.00;;;1.90;;
46116;SDS011;32591;48.102;11.772;2022-09-29T06:16:03;2.78;;;1.98;;
46116;SDS011;32591;48.102;11.772;2022-09-29T06:18:31;1.92;;;1.30;;
46116;SDS011;32591;48.102;11.772;2022-09-29T06:20:59;2.15;;;1.20;;
46116;SDS011;32591;48.102;11.772;2022-09-29T06:23:27;2.58;;;1.50;;
46116;SDS011;32591;48.102;11.772;2022-09-29T06:25:55;4.38;;;1.60;;
46116;SDS011;32591;48.102;11.772;2022-09-29T06:28:24;2.33;;;1.63;;
46116;SDS011;32591;48.102;11.772;2022-09-29T06:30:51;3.05;;;1.73;;
46116;SDS011;32591;48.102;11.772;2022-09-29T06:33:18;2.90;;;1.50;;
46116;SDS011;32591;48.102;11.772;2022-09-29T06:35:45;1.90;;;1.40;;
46116;SDS011;32591;48.102;11.772;2022-09-29T06:38:31;3.00;;;1.80;;
46116;SDS011;32591;48.102;11.772;2022-09-29T06:40:59;5.97;;;3.30;;
46116;SDS011;32591;48.102;11.772;2022-09-29T06:43:27;6.22;;;4.30;;
46116;SDS011;32591;48.102;11.772;2022-09-29T06:45:54;5.75;;;3.45;;
46116;SDS011;32591;48.102;11.772;2022-09-29T06:48:22;2.60;;;2.00;;
46116;SDS011;32591;48.102;11.772;2022-09-29T06:50:49;2.65;;;1.73;;
46116;SDS011;32591;48.102;11.772;2022-09-29T06:53:16;2.40;;;2.00;;
46116;SDS011;32591;48.102;11.772;2022-09-29T06:55:43;4.13;;;2.50;;
46116;SDS011;32591;48.102;11.772;2022-09-29T06:58:18;3.28;;;2.40;;
46116;SDS011;32591;48.102;11.772;2022-09-29T07:00:46;2.45;;;1.45;;
46116;SDS011;32591;48.102;11.772;2022-09-29T07:03:13;4.05;;;1.35;;
46116;SDS011;32591;48.102;11.772;2022-09-29T07:05:41;1.90;;;1.45;;
46116;SDS011;32591;48.102;11.772;2022-09-29T07:08:08;1.92;;;1.45;;
46116;SDS011;32591;48.102;11.772;2022-09-29T07:10:35;3.63;;;1.30;;
46116;SDS011;32591;48.102;11.772;2022-09-29T07:13:02;1.52;;;0.95;;
46116;SDS011;32591;48.102;11.772;2022-09-29T07:15:30;6.15;;;1.50;;
46116;SDS011;32591;48.102;11.772;2022-09-29T07:17:58;1.63;;;1.00;;
46116;SDS011;32591;48.102;11.772;2022-09-29T07:20:26;3.50;;;1.00;;
46116;SDS011;32591;48.102;11.772;2022-09-29T07:22:54;2.33;;;1.42;;
46116;SDS011;32591;48.102;11.772;2022-09-29T07:25:22;1.23;;;1.02;;
46116;SDS011;32591;48.102;11.772;2022-09-29T07:27:49;2.15;;;1.60;;
46116;SDS011;32591;48.102;11.772;2022-09-29T07:30:17;3.65;;;1.60;;
46116;SDS011;32591;48.102;11.772;2022-09-29T07:32:57;8.20;;;3.35;;
46116;SDS011;32591;48.102;11.772;2022-09-29T07:35:25;3.92;;;2.08;;
46116;SDS011;32591;48.102;11.772;2022-09-29T07:37:52;3.25;;;2.67;;
46116;SDS011;32591;48.102;11.772;2022-09-29T07:40:20;2.78;;;2.17;;
46116;SDS011;32591;48.102;11.772;2022-09-29T07:42:48;1.45;;;1.35;;
46116;SDS011;32591;48.102;11.772;2022-09-29T07:45:16;1.73;;;1.00;;
46116;SDS011;32591;48.102;11.772;2022-09-29T07:47:43;1.95;;;0.95;;
46116;SDS011;32591;48.102;11.772;2022-09-29T07:50:12;1.75;;;1.00;;
46116;SDS011;32591;48.102;11.772;2022-09-29T07:52:39;1.60;;;0.80;;
46116;SDS011;32591;48.102;11.772;2022-09-29T07:55:06;3.33;;;1.83;;
46116;SDS011;32591;48.102;11.772;2022-09-29T07:57:34;4.55;;;1.95;;
46116;SDS011;32591;48.102;11.772;2022-09-29T08:00:01;3.78;;;2.13;;
46116;SDS011;32591;48.102;11.772;2022-09-29T08:02:30;2.10;;;1.15;;
46116;SDS011;32591;48.102;11.772;2022-09-29T08:04:58;1.05;;;0.73;;
46116;SDS011;32591;48.102;11.772;2022-09-29T08:07:26;1.92;;;0.80;;
46116;SDS011;32591;48.102;11.772;2022-09-29T08:09:53;1.13;;;1.00;;
46116;SDS011;32591;48.102;11.772;2022-09-29T08:12:20;0.40;;;0.40;;
46116;SDS011;32591;48.102;11.772;2022-09-29T08:14:47;2.75;;;0.90;;
46116;SDS011;32591;48.102;11.772;2022-09-29T08:17:14;1.27;;;0.73;;
46116;SDS011;32591;48.102;11.772;2022-09-29T08:19:42;2.05;;;0.90;;
46116;SDS011;32591;48.102;11.772;2022-09-29T08:22:09;1.73;;;1.05;;
46116;SDS011;32591;48.102;11.772;2022-09-29T08:24:37;1.30;;;0.95;;
46116;SDS011;32591;48.102;11.772;2022-09-29T08:27:04;1.42;;;1.20;;
46116;SDS011;32591;48.102;11.772;2022-09-29T08:29:32;2.63;;;1.20;;
46116;SDS011;32591;48.102;11.772;2022-09-29T08:31:59;1.38;;;0.95;;
46116;SDS011;32591;48.102;11.772;2022-09-29T08:34:26;1.02;;;0.85;;
46116;SDS011;32591;48.102;11.772;2022-09-29T08:36:53;1.23;;;1.00;;
46116;SDS011;32591;48.102;11.772;2022-09-29T08:39:21;1.73;;;0.82;;
46116;SDS011;32591;48.102;11.772;2022-09-29T08:41:51;1.38;;;1.10;;
46116;SDS011;32591;48.102;11.772;2022-09-29T08:44:23;1.85;;;1.27;;
46116;SDS011;32591;48.102;11.772;2022-09-29T08:47:00;1.70;;;1.20;;
46116;SDS011;32591;48.102;11.772;2022-09-29T08:49:34;1.75;;;1.00;;
46116;SDS011;32591;48.102;11.772;2022-09-29T08:52:05;1.55;;;0.88;;
46116;SDS011;32591;48.102;11.772;2022-09-29T08:54:38;1.17;;;0.82;;
46116;SDS011;32591;48.102;11.772;2022-09-29T08:57:11;2.65;;;0.90;;
46116;SDS011;32591;48.102;11.772;2022-09-29T08:59:44;0.90;;;0.70;;
46116;SDS011;32591;48.102;11.772;2022-09-29T09:02:40;1.15;;;0.70;;
46116;SDS011;32591;48.102;11.772;2022-09-29T09:05:40;1.45;;;0.73;;
46116;SDS011;32591;48.102;11.772;2022-09-29T09:08:21;1.30;;;0.70;;
46116;SDS011;32591;48.102;11.772;2022-09-29T09:13:51;1.00;;;0.70;;
46116;SDS011;32591;48.102;11.772;2022-09-29T09:16:33;1.20;;;0.50;;
46116;SDS011;32591;48.102;11.772;2022-09-29T09:19:21;2.33;;;0.90;;
46116;SDS011;32591;48.102;11.772;2022-09-29T09:22:10;1.80;;;0.52;;
46116;SDS011;32591;48.102;11.772;2022-09-29T09:24:47;0.80;;;0.70;;
46116;SDS011;32591;48.102;11.772;2022-09-29T09:27:23;0.82;;;0.50;;
46116;SDS011;32591;48.102;11.772;2022-09-29T09:29:58;1.10;;;0.47;;
46116;SDS011;32591;48.102;11.772;2022-09-29T09:32:32;0.63;;;0.40;;
46116;SDS011;32591;48.102;11.772;2022-09-29T09:35:15;0.57;;;0.37;;
46116;SDS011;32591;48.102;11.772;2022-09-29T09:37:55;1.42;;;0.80;;
46116;SDS011;32591;48.102;11.772;2022-09-29T09:40:27;1.17;;;0.32;;
46116;SDS011;32591;48.102;11.772;2022-09-29T09:43:04;2.03;;;0.60;;
46116;SDS011;32591;48.102;11.772;2022-09-29T09:45:38;0.63;;;0.40;;
46116;SDS011;32591;48.102;11.772;2022-09-29T09:48:14;0.60;;;0.40;;
46116;SDS011;32591;48.102;11.772;2022-09-29T09:50:45;1.27;;;0.68;;
46116;SDS011;32591;48.102;11.772;2022-09-29T09:53:14;1.83;;;1.48;;
46116;SDS011;32591;48.102;11.772;2022-09-29T09:55:50;1.88;;;0.75;;
46116;SDS011;32591;48.102;11.772;2022-09-29T09:58:27;1.83;;;0.63;;
46116;SDS011;32591;48.102;11.772;2022-09-29T10:01:22;0.73;;;0.68;;
46116;SDS011;32591;48.102;11.772;2022-09-29T10:03:49;1.50;;;0.80;;
46116;SDS011;32591;48.102;11.772;2022-09-29T10:06:17;2.38;;;0.70;;
46116;SDS011;32591;48.102;11.772;2022-09-29T10:08:44;1.67;;;0.60;;
46116;SDS011;32591;48.102;11.772;2022-09-29T10:11:15;2.20;;;1.10;;
46116;SDS011;32591;48.102;11.772;2022-09-29T10:13:56;2.22;;;1.02;;
46116;SDS011;32591;48.102;11.772;2022-09-29T10:16:30;1.13;;;1.00;;
46116;SDS011;32591;48.102;11.772;2022-09-29T10:19:05;1.83;;;1.20;;
46116;SDS011;32591;48.102;11.772;2022-09-29T10:21:36;3.13;;;0.90;;
46116;SDS011;32591;48.102;11.772;2022-09-29T10:24:09;1.02;;;0.80;;
46116;SDS011;32591;48.102;11.772;2022-09-29T10:26:49;1.10;;;0.80;;
46116;SDS011;32591;48.102;11.772;2022-09-29T10:29:24;1.63;;;1.00;;
46116;SDS011;32591;48.102;11.772;2022-09-29T10:31:59;1.00;;;0.77;;
46116;SDS011;32591;48.102;11.772;2022-09-29T10:34:31;1.23;;;0.80;;
46116;SDS011;32591;48.102;11.772;2022-09-29T10:37:00;0.80;;;0.70;;
46116;SDS011;32591;48.102;11.772;2022-09-29T10:39:33;1.42;;;1.00;;
46116;SDS011;32591;48.102;11.772;2022-09-29T10:42:19;1.02;;;0.73;;
46116;SDS011;32591;48.102;11.772;2022-09-29T10:44:49;2.75;;;0.90;;
46116;SDS011;32591;48.102;11.772;2022-09-29T10:47:20;1.90;;;1.10;;
46116;SDS011;32591;48.102;11.772;2022-09-29T10:50:02;5.38;;;2.53;;
46116;SDS011;32591;48.102;11.772;2022-09-29T10:52:40;2.00;;;1.35;;
46116;SDS011;32591;48.102;11.772;2022-09-29T10:55:14;1.60;;;0.68;;
46116;SDS011;32591;48.102;11.772;2022-09-29T10:57:44;2.03;;;1.00;;
46116;SDS011;32591;48.102;11.772;2022-09-29T11:00:28;1.00;;;0.70;;
46116;SDS011;32591;48.102;11.772;2022-09-29T11:03:03;0.68;;;0.60;;
46116;SDS011;32591;48.102;11.772;2022-09-29T11:05:34;1.52;;;0.93;;
46116;SDS011;32591;48.102;11.772;2022-09-29T11:08:02;1.23;;;0.60;;
46116;SDS011;32591;48.102;11.772;2022-09-29T11:10:31;1.55;;;0.70;;
46116;SDS011;32591;48.102;11.772;2022-09-29T11:13:13;0.95;;;0.80;;
46116;SDS011;32591;48.102;11.772;2022-09-29T11:16:10;2.47;;;1.10;;
46116;SDS011;32591;48.102;11.772;2022-09-29T11:18:42;1.13;;;0.75;;
46116;SDS011;32591;48.102;11.772;2022-09-29T11:21:30;1.27;;;0.70;;
46116;SDS011;32591;48.102;11.772;2022-09-29T11:31:07;2.15;;;1.00;;
46116;SDS011;32591;48.102;11.772;2022-09-29T11:33:53;1.30;;;0.88;;
46116;SDS011;32591;48.102;11.772;2022-09-29T11:36:34;1.33;;;0.80;;
46116;SDS011;32591;48.102;11.772;2022-09-29T11:39:12;2.63;;;1.10;;
46116;SDS011;32591;48.102;11.772;2022-09-29T11:41:56;1.88;;;0.90;;
46116;SDS011;32591;48.102;11.772;2022-09-29T11:44:44;3.17;;;1.20;;
46116;SDS011;32591;48.102;11.772;2022-09-29T11:47:32;1.33;;;0.85;;
46116;SDS011;32591;48.102;11.772;2022-09-29T11:50:33;1.50;;;0.82;;
46116;SDS011;32591;48.102;11.772;2022-09-29T11:53:18;4.53;;;1.67;;
46116;SDS011;32591;48.102;11.772;2022-09-29T11:56:09;2.42;;;0.80;;
46116;SDS011;32591;48.102;11.772;2022-09-29T11:58:53;1.70;;;0.80;;
46116;SDS011;32591;48.102;11.772;2022-09-29T12:01:41;1.77;;;1.08;;
46116;SDS011;32591;48.102;11.772;2022-09-29T12:04:22;1.65;;;0.90;;
46116;SDS011;32591;48.102;11.772;2022-09-29T12:07:04;2.15;;;0.80;;
46116;SDS011;32591;48.102;11.772;2022-09-29T12:09:57;0.93;;;0.60;;
46116;SDS011;32591;48.102;11.772;2022-09-29T12:12:42;2.05;;;0.88;;
46116;SDS011;32591;48.102;11.772;2022-09-29T12:15:24;2.15;;;1.05;;
46116;SDS011;32591;48.102;11.772;2022-09-29T12:18:02;2.05;;;1.00;;
46116;SDS011;32591;48.102;11.772;2022-09-29T12:20:37;2.83;;;1.27;;
46116;SDS011;32591;48.102;11.772;2022-09-29T12:23:10;2.00;;;1.23;;
46116;SDS011;32591;48.102;11.772;2022-09-29T12:25:44;1.33;;;0.93;;
46116;SDS011;32591;48.102;11.772;2022-09-29T12:28:23;1.13;;;0.95;;
46116;SDS011;32591;48.102;11.772;2022-09-29T12:30:56;1.33;;;0.75;;
46116;SDS011;32591;48.102;11.772;2022-09-29T12:33:28;1.77;;;1.02;;
46116;SDS011;32591;48.102;11.772;2022-09-29T12:36:04;1.92;;;1.00;;
46116;SDS011;32591;48.102;11.772;2022-09-29T12:39:02;3.55;;;1.63;;
46116;SDS011;32591;48.102;11.772;2022-09-29T12:41:45;1.10;;;0.88;;
46116;SDS011;32591;48.102;11.772;2022-09-29T12:44:20;3.35;;;1.27;;
46116;SDS011;32591;48.102;11.772;2022-09-29T12:46:57;3.20;;;1.45;;
46116;SDS011;32591;48.102;11.772;2022-09-29T12:49:32;2.13;;;1.33;;
46116;SDS011;32591;48.102;11.772;2022-09-29T12:52:09;1.63;;;1.13;;
46116;SDS011;32591;48.102;11.772;2022-09-29T12:54:45;3.70;;;1.75;;
46116;SDS011;32591;48.102;11.772;2022-09-29T12:57:19;3.60;;;1.88;;
46116;SDS011;32591;48.102;11.772;2022-09-29T12:59:51;4.75;;;1.83;;
46116;SDS011;32591;48.102;11.772;2022-09-29T13:02:27;5.50;;;2.22;;
46116;SDS011;32591;48.102;11.772;2022-09-29T13:05:24;3.17;;;2.08;;
46116;SDS011;32591;48.102;11.772;2022-09-29T13:09:01;4.55;;;2.65;;
46116;SDS011;32591;48.102;11.772;2022-09-29T13:11:55;4.43;;;2.55;;
46116;SDS011;32591;48.102;11.772;2022-09-29T13:14:43;5.20;;;2.67;;
46116;SDS011;32591;48.102;11.772;2022-09-29T13:17:29;10.18;;;3.33;;
46116;SDS011;32591;48.102;11.772;2022-09-29T13:20:23;4.85;;;3.40;;
46116;SDS011;32591;48.102;11.772;2022-09-29T13:26:37;6.57;;;4.22;;
46116;SDS011;32591;48.102;11.772;2022-09-29T13:29:20;5.50;;;3.30;;
46116;SDS011;32591;48.102;11.772;2022-09-29T13:31:49;5.20;;;3.97;;
46116;SDS011;32591;48.102;11.772;2022-09-29T13:34:20;6.78;;;3.60;;
46116;SDS011;32591;48.102;11.772;2022-09-29T13:36:59;5.50;;;3.60;;
46116;SDS011;32591;48.102;11.772;2022-09-29T13:39:32;6.35;;;3.78;;
46116;SDS011;32591;48.102;11.772;2022-09-29T14:02:49;4.63;;;3.15;;
46116;SDS011;32591;48.102;11.772;2022-09-29T14:05:34;7.50;;;4.13;;
46116;SDS011;32591;48.102;11.772;2022-09-29T14:08:07;5.70;;;4.05;;
46116;SDS011;32591;48.102;11.772;2022-09-29T14:10:46;7.82;;;4.32;;
46116;SDS011;32591;48.102;11.772;2022-09-29T14:13:20;5.40;;;3.20;;
46116;SDS011;32591;48.102;11.772;2022-09-29T14:15:55;5.18;;;3.28;;
46116;SDS011;32591;48.102;11.772;2022-09-29T14:18:39;4.95;;;3.40;;
46116;SDS011;32591;48.102;11.772;2022-09-29T14:21:12;6.80;;;4.50;;
46116;SDS011;32591;48.102;11.772;2022-09-29T14:27:19;5.65;;;3.70;;
46116;SDS011;32591;48.102;11.772;2022-09-29T14:29:57;4.65;;;3.08;;
46116;SDS011;32591;48.102;11.772;2022-09-29T14:32:42;4.43;;;3.15;;
46116;SDS011;32591;48.102;11.772;2022-09-29T14:35:19;5.45;;;3.60;;
46116;SDS011;32591;48.102;11.772;2022-09-29T14:37:58;4.65;;;3.20;;
46116;SDS011;32591;48.102;11.772;2022-09-29T14:40:30;6.15;;;4.13;;
46116;SDS011;32591;48.102;11.772;2022-09-29T14:43:01;5.95;;;3.75;;
46116;SDS011;32591;48.102;11.772;2022-09-29T14:45:31;4.00;;;2.85;;
46116;SDS011;32591;48.102;11.772;2022-09-29T14:48:27;4.80;;;3.22;;
46116;SDS011;32591;48.102;11.772;2022-09-29T14:51:23;10.10;;;3.75;;
46116;SDS011;32591;48.102;11.772;2022-09-29T14:54:20;5.35;;;3.58;;
46116;SDS011;32591;48.102;11.772;2022-09-29T14:57:08;5.43;;;3.42;;
46116;SDS011;32591;48.102;11.772;2022-09-29T14:59:51;4.25;;;3.22;;
46116;SDS011;32591;48.102;11.772;2022-09-29T15:02:29;7.15;;;3.58;;
46116;SDS011;32591;48.102;11.772;2022-09-29T15:04:59;5.60;;;2.97;;
46116;SDS011;32591;48.102;11.772;2022-09-29T15:07:39;6.28;;;3.25;;
46116;SDS011;32591;48.102;11.772;2022-09-29T15:10:18;5.25;;;3.00;;
46116;SDS011;32591;48.102;11.772;2022-09-29T15:12:48;6.43;;;3.30;;
46116;SDS011;32591;48.102;11.772;2022-09-29T15:15:29;4.40;;;3.42;;
46116;SDS011;32591;48.102;11.772;2022-09-29T15:18:02;4.07;;;2.75;;
46116;SDS011;32591;48.102;11.772;2022-09-29T15:20:48;3.63;;;2.70;;
46116;SDS011;32591;48.102;11.772;2022-09-29T15:23:32;2.88;;;2.42;;
46116;SDS011;32591;48.102;11.772;2022-09-29T15:26:19;3.55;;;2.72;;
46116;SDS011;32591;48.102;11.772;2022-09-29T15:28:46;3.67;;;2.90;;
46116;SDS011;32591;48.102;11.772;2022-09-29T15:31:15;3.35;;;2.80;;
46116;SDS011;32591;48.102;11.772;2022-09-29T15:33:44;4.60;;;3.42;;
46116;SDS011;32591;48.102;11.772;2022-09-29T15:36:16;3.38;;;3.08;;
46116;SDS011;32591;48.102;11.772;2022-09-29T15:38:48;5.10;;;3.45;;
46116;SDS011;32591;48.102;11.772;2022-09-29T15:41:20;5.30;;;3.35;;
46116;SDS011;32591;48.102;11.772;2022-09-29T15:43:53;8.65;;;3.38;;
46116;SDS011;32591;48.102;11.772;2022-09-29T15:46:23;5.40;;;3.40;;
46116;SDS011;32591;48.102;11.772;2022-09-29T15:49:06;4.97;;;3.10;;
46116;SDS011;32591;48.102;11.772;2022-09-29T15:51:42;3.55;;;2.78;;
46116;SDS011;32591;48.102;11.772;2022-09-29T15:54:21;5.60;;;3.78;;